Oakdale, Iowa
Current Conditions -  °F | °C
As of 10:32 PM on Saturday 22 Nov 2014 (Local Time) from KIOW Reporting Station
Broken Clouds Broken Clouds  
Wind Chill: 44°   Ceiling: 2100
Heat Index: 48°   Visibility: 10mi
Dew Point: 47°   Wind: 9mph
Humidity: 96%   Direction: 150°SSE
Pressure: 29.74"   Gusts: NA
Location:  41.71°N, 91.6°W
Report Text: KIOW 230432Z AUTO 15008KT 10SM BKN021 09/08 A2974 RMK AO2 T00890083
Loading
Personal Weather Stations






























Interactive Weather Map New forecast layout! Learn more

10-Day Weather Forecast

Advertisements
Track Severe Weather on mobile